createdAt,value
2023-04-14T00:00:10.439Z,10.70
2023-04-14T00:05:12.230Z,10.60
2023-04-14T00:10:11.159Z,10.60
2023-04-14T00:15:11.997Z,10.60
2023-04-14T00:20:11.258Z,10.50
2023-04-14T00:25:10.368Z,10.40
2023-04-14T00:30:11.413Z,10.40
2023-04-14T00:35:11.312Z,10.40
2023-04-14T00:40:12.070Z,10.40
2023-04-14T00:45:12.716Z,10.30
2023-04-14T00:50:12.077Z,10.20
2023-04-14T00:55:11.414Z,10.20
2023-04-14T01:00:14.167Z,10.20
2023-04-14T01:05:13.562Z,10.10
2023-04-14T01:10:12.844Z,10.10
2023-04-14T01:15:22.943Z,10.10
2023-04-14T01:20:28.803Z,10.00
2023-04-14T01:26:09.279Z,10.10
2023-04-14T01:31:27.251Z,10.00
2023-04-14T01:36:29.932Z,10.00
2023-04-14T01:41:31.705Z,9.90
2023-04-14T01:46:34.077Z,9.90
2023-04-14T01:51:35.312Z,9.80
2023-04-14T01:56:35.417Z,9.80
2023-04-14T02:01:37.602Z,9.80
2023-04-14T02:06:37.565Z,9.80
2023-04-14T02:11:36.885Z,9.70
2023-04-14T02:16:39.015Z,9.70
2023-04-14T02:21:39.341Z,9.80
2023-04-14T02:26:41.564Z,9.60
2023-04-14T02:31:47.549Z,9.50
2023-04-14T02:36:50.151Z,9.70
2023-04-14T02:41:54.854Z,9.40
2023-04-14T02:47:04.225Z,9.50
2023-04-14T02:52:08.132Z,9.40
2023-04-14T02:57:07.375Z,9.30
2023-04-14T03:02:13.617Z,9.30
2023-04-14T03:07:19.021Z,9.20
2023-04-14T03:12:19.013Z,9.20
2023-04-14T03:17:21.513Z,9.20
2023-04-14T03:22:23.593Z,9.10
2023-04-14T03:27:26.490Z,9.10
2023-04-14T03:32:30.761Z,9.10
2023-04-14T03:37:30.333Z,9.00
2023-04-14T03:42:31.441Z,8.90
2023-04-14T03:47:32.906Z,8.90
2023-04-14T03:52:36.787Z,8.90
2023-04-14T03:57:37.691Z,8.80
2023-04-14T04:02:38.967Z,8.80
2023-04-14T04:07:40.240Z,8.70
2023-04-14T04:12:40.318Z,8.70
2023-04-14T04:17:42.993Z,8.70
2023-04-14T04:22:43.445Z,8.60
2023-04-14T04:27:42.630Z,8.60
2023-04-14T04:32:47.666Z,8.60
2023-04-14T04:37:47.431Z,8.50
2023-04-14T04:42:46.420Z,8.50
2023-04-14T04:47:49.212Z,8.50
2023-04-14T04:52:47.433Z,8.50
2023-04-14T04:57:46.235Z,8.50
2023-04-14T05:02:45.004Z,8.50
2023-04-14T05:07:44.905Z,8.50
2023-04-14T05:12:43.383Z,8.40
2023-04-14T05:17:41.936Z,8.40
2023-04-14T05:22:40.426Z,8.40
2023-04-14T05:27:40.377Z,8.50
2023-04-14T05:32:38.859Z,8.70
2023-04-14T05:37:37.382Z,8.50
2023-04-14T05:42:35.838Z,8.80
2023-04-14T05:47:36.371Z,8.70
2023-04-14T05:52:34.875Z,8.50
2023-04-14T05:57:33.351Z,8.60
2023-04-14T06:02:31.946Z,9.00
2023-04-14T06:07:31.895Z,8.70
2023-04-14T06:12:30.607Z,8.80
2023-04-14T06:17:29.500Z,8.80
2023-04-14T06:22:29.681Z,8.90
2023-04-14T06:27:29.493Z,9.20
2023-04-14T06:32:27.965Z,9.10
2023-04-14T06:37:26.580Z,9.20
2023-04-14T06:42:25.071Z,9.20
2023-04-14T06:47:25.968Z,9.30
2023-04-14T06:52:24.501Z,9.70
2023-04-14T06:57:23.005Z,9.50
2023-04-14T07:02:21.563Z,9.50
2023-04-14T07:07:21.491Z,9.60
2023-04-14T07:12:20.280Z,9.70
2023-04-14T07:17:19.018Z,9.80
2023-04-14T07:22:17.928Z,9.90
2023-04-14T07:27:17.791Z,10.00
2023-04-14T07:32:16.326Z,10.10
2023-04-14T07:37:16.093Z,10.10
2023-04-14T07:42:14.590Z,10.30
2023-04-14T07:47:14.457Z,10.40
2023-04-14T07:52:12.929Z,10.50
2023-04-14T07:57:11.148Z,10.70
2023-04-14T08:02:09.792Z,10.80
2023-04-14T08:07:09.795Z,10.90
2023-04-14T08:12:08.335Z,11.10
2023-04-14T08:17:07.212Z,11.30
2023-04-14T08:22:05.799Z,11.40
2023-04-14T08:27:05.812Z,11.60
2023-04-14T08:32:05.194Z,11.70
2023-04-14T08:37:03.803Z,11.90
2023-04-14T08:42:02.630Z,12.10
2023-04-14T08:47:02.797Z,12.30
2023-04-14T08:52:04.620Z,12.50
2023-04-14T08:57:05.010Z,12.60
2023-04-14T09:02:06.869Z,12.70
2023-04-14T09:07:06.600Z,12.90
2023-04-14T09:12:05.752Z,13.10
2023-04-14T09:17:05.927Z,13.30
2023-04-14T09:22:04.482Z,13.50
2023-04-14T09:27:05.359Z,13.70
2023-04-14T09:32:06.296Z,13.80
2023-04-14T09:37:06.393Z,13.90
2023-04-14T09:42:05.708Z,14.00
2023-04-14T09:47:07.693Z,14.20
2023-04-14T09:52:08.742Z,14.30
2023-04-14T09:57:07.992Z,14.30
2023-04-14T10:02:09.519Z,14.30
2023-04-14T10:07:09.477Z,14.30
2023-04-14T10:12:10.362Z,14.20
2023-04-14T10:17:11.535Z,14.10
2023-04-14T10:22:10.731Z,14.10
2023-04-14T10:27:09.473Z,14.10
2023-04-14T10:32:11.547Z,14.10
2023-04-14T10:37:14.486Z,14.10
2023-04-14T10:42:12.862Z,14.10
2023-04-14T10:47:25.223Z,14.00
2023-04-14T10:52:33.521Z,13.90
2023-04-14T10:57:38.726Z,13.60
2023-04-14T11:02:38.766Z,13.40
2023-04-14T11:07:40.761Z,13.20
2023-04-14T11:12:44.738Z,13.20
2023-04-14T11:17:45.820Z,13.20
2023-04-14T11:22:46.146Z,13.20
2023-04-14T11:27:45.451Z,13.30
2023-04-14T11:32:50.595Z,13.30
2023-04-14T11:37:48.872Z,13.30
2023-04-14T11:42:48.433Z,13.30
2023-04-14T11:47:58.966Z,13.40
2023-04-14T11:52:59.746Z,13.50
2023-04-14T11:57:58.529Z,13.60
2023-04-14T12:02:58.900Z,13.60
2023-04-14T12:08:00.500Z,13.70
2023-04-14T12:13:02.687Z,13.90
2023-04-14T12:18:03.682Z,13.90
2023-04-14T12:23:06.711Z,14.00
2023-04-14T12:28:07.077Z,14.10
2023-04-14T12:33:12.342Z,14.20
2023-04-14T12:38:12.921Z,14.40
2023-04-14T12:43:11.466Z,14.50
2023-04-14T12:48:11.714Z,14.80
2023-04-14T12:53:26.428Z,14.90
2023-04-14T12:58:24.612Z,15.10
2023-04-14T13:03:25.046Z,15.20
2023-04-14T13:08:23.898Z,15.30
2023-04-14T13:13:22.340Z,15.40
2023-04-14T13:18:20.893Z,15.60
2023-04-14T13:23:20.748Z,15.80
2023-04-14T13:28:19.229Z,16.00
2023-04-14T13:33:17.888Z,16.20
2023-04-14T13:38:16.438Z,16.30
2023-04-14T13:43:17.562Z,16.30
2023-04-14T13:48:16.064Z,16.30
2023-04-14T13:53:14.192Z,16.50
2023-04-14T13:58:12.700Z,16.50
2023-04-14T14:03:12.833Z,16.40
2023-04-14T14:08:11.392Z,16.40
2023-04-14T14:13:10.601Z,16.30
2023-04-14T14:18:09.572Z,16.20
2023-04-14T14:23:12.296Z,16.20
2023-04-14T14:28:10.876Z,16.20
2023-04-14T14:33:09.896Z,16.10
2023-04-14T14:38:09.823Z,16.00
2023-04-14T14:43:08.277Z,15.90
2023-04-14T14:48:07.027Z,15.80
2023-04-14T14:53:05.475Z,15.80
2023-04-14T14:58:06.682Z,15.70
2023-04-14T15:03:05.753Z,15.60
2023-04-14T15:08:04.682Z,15.60
2023-04-14T15:13:05.681Z,15.60
2023-04-14T15:18:05.635Z,15.50
2023-04-14T15:23:04.184Z,15.30
2023-04-14T15:28:02.656Z,14.90
2023-04-14T15:33:02.505Z,14.80
2023-04-14T15:38:01.009Z,14.70
2023-04-14T15:42:59.477Z,14.50
2023-04-14T15:47:57.985Z,14.20
2023-04-14T15:52:58.836Z,13.90
2023-04-14T15:57:57.566Z,13.80
2023-04-14T16:02:56.248Z,13.70
2023-04-14T16:07:54.838Z,13.60
2023-04-14T16:12:54.408Z,13.40
2023-04-14T16:17:53.008Z,13.30
2023-04-14T16:22:51.532Z,13.30
2023-04-14T16:27:49.644Z,13.30
2023-04-14T16:32:49.791Z,13.30
2023-04-14T16:37:48.393Z,13.30
2023-04-14T16:42:46.746Z,13.30
2023-04-14T16:47:45.226Z,13.30
2023-04-14T16:52:45.053Z,13.30
2023-04-14T16:57:43.803Z,13.40
2023-04-14T17:02:42.807Z,13.30
2023-04-14T17:07:41.433Z,13.20
2023-04-14T17:12:42.844Z,13.00
2023-04-14T17:17:43.157Z,13.00
2023-04-14T17:22:41.646Z,12.80
2023-04-14T17:27:41.522Z,12.70
2023-04-14T17:32:40.734Z,12.60
2023-04-14T17:37:39.446Z,12.50
2023-04-14T17:42:39.006Z,12.40
2023-04-14T17:47:40.184Z,12.40
2023-04-14T17:52:38.830Z,12.20
2023-04-14T17:57:37.455Z,12.00
2023-04-14T18:02:38.672Z,12.00
2023-04-14T18:07:38.807Z,12.00
2023-04-14T18:12:37.351Z,12.00
2023-04-14T18:17:36.500Z,11.90
2023-04-14T18:22:35.734Z,11.80
2023-04-14T18:32:36.768Z,11.60
2023-04-14T18:37:35.001Z,11.50
2023-04-14T18:42:36.682Z,11.30
2023-04-14T18:47:34.925Z,11.10
2023-04-14T18:52:33.949Z,11.20
2023-04-14T18:57:32.090Z,11.20
2023-04-14T19:02:32.329Z,11.30
2023-04-14T19:07:30.569Z,11.20
2023-04-14T19:12:29.370Z,11.10
2023-04-14T19:17:28.801Z,10.80
2023-04-14T19:22:28.922Z,10.80
2023-04-14T19:27:27.650Z,10.80
2023-04-14T19:32:26.298Z,10.80
2023-04-14T19:37:24.858Z,10.80
2023-04-14T19:42:24.812Z,10.90
2023-04-14T19:47:23.031Z,10.90
2023-04-14T19:52:22.513Z,10.80
2023-04-14T19:57:22.196Z,10.80
2023-04-14T20:02:25.532Z,10.70
2023-04-14T20:07:29.324Z,10.90
2023-04-14T20:12:27.790Z,11.10
2023-04-14T20:17:28.007Z,11.30
2023-04-14T20:22:27.523Z,11.50
2023-04-14T20:27:25.682Z,11.40
2023-04-14T20:32:25.017Z,11.50
2023-04-14T20:37:24.904Z,11.40
2023-04-14T20:42:23.686Z,11.50
2023-04-14T20:47:21.910Z,11.50
2023-04-14T20:52:20.454Z,11.50
2023-04-14T20:57:20.509Z,11.40
2023-04-14T21:02:19.417Z,11.20
2023-04-14T21:07:18.022Z,11.10
2023-04-14T21:12:16.728Z,11.20
2023-04-14T21:17:16.634Z,11.20
2023-04-14T21:22:15.129Z,11.20
2023-04-14T21:27:13.684Z,11.30
2023-04-14T21:32:12.194Z,11.30
2023-04-14T21:37:19.021Z,11.20
2023-04-14T21:42:17.767Z,11.20
2023-04-14T21:47:16.872Z,11.10
2023-04-14T21:52:16.394Z,11.00
2023-04-14T21:57:15.697Z,11.10
2023-04-14T22:02:14.224Z,11.20
2023-04-14T22:07:12.767Z,11.20
2023-04-14T22:12:12.643Z,11.20
2023-04-14T22:17:11.455Z,11.20
2023-04-14T22:22:10.070Z,11.30
2023-04-14T22:27:08.811Z,11.10
2023-04-14T22:32:08.753Z,11.00
2023-04-14T22:37:07.540Z,11.10
2023-04-14T22:42:06.472Z,11.00
2023-04-14T22:47:05.397Z,11.00
2023-04-14T22:52:05.387Z,11.10
2023-04-14T22:57:03.983Z,11.20
2023-04-14T23:02:02.712Z,11.20
2023-04-14T23:07:01.024Z,11.10
2023-04-14T23:12:02.542Z,11.00
2023-04-14T23:17:01.289Z,10.90
2023-04-14T23:21:59.796Z,10.80
2023-04-14T23:26:58.614Z,10.90
2023-04-14T23:31:58.489Z,10.70
2023-04-14T23:36:57.033Z,10.70
2023-04-14T23:41:55.840Z,10.90
2023-04-14T23:46:54.495Z,11.10
2023-04-14T23:51:54.411Z,11.00
2023-04-14T23:56:53.162Z,11.10
